Latest Weather Observations for Dum In Mirrie

IDD60901

Issued at 3:11 pm CST Monday 25 May 2015 (issued every 10 minutes, with the page automatically refreshed every 10 minutes)

About weather observations | Map of Darwin area stations | Latest observations for Darwin area | Other Formats
Station Details ID: 014277 Name: DUM IN MIRRIE AIRSTRIP Lat: -12.63 Lon: 130.37 Height: 3.5 m
Data from the previous 72 hours. | See also: Recent months at Dum In Mirrie
Date/Time
CST
Tmp

°C
App
Tmp
°C
Dew
Point
°C
Rel
Hum
%
Delta-T

°C
Wind Press
QNH
hPa
Press
MSL
hPa
Rain
since
9 am
mm
Dir
 
Spd
km/h
Gust
km/h
Spd
kts
Gust
kts
25/03:00pm 32.4 29.9 8.0 22 13.5 ENE 11 17 6 9 1013.1 1013.1 0.0
25/02:30pm 32.3 29.5 8.5 23 13.3 ENE 13 17 7 9 1013.4 1013.4 0.0
25/02:00pm 32.6 30.1 8.1 22 13.6 E 11 17 6 9 1013.7 1013.7 0.0
25/01:30pm 32.2 29.9 9.1 24 13.0 E 11 19 6 10 1014.2 1014.2 0.0
25/01:00pm 31.6 28.7 8.0 23 13.0 E 13 20 7 11 1014.7 1014.7 0.0
25/12:30pm 31.4 29.1 9.0 25 12.5 E 11 19 6 10 1015.1 1015.1 0.0
25/12:00pm 30.5 29.2 12.4 33 10.6 E 11 17 6 9 1015.5 1015.5 0.0
25/11:30am 30.2 29.2 13.5 36 10.0 E 11 19 6 10 1015.8 1015.8 0.0
25/11:00am 28.3 27.0 14.9 44 8.1 E 15 24 8 13 1016.1 1016.1 0.0
25/10:30am 27.3 26.2 15.3 48 7.3 E 15 24 8 13 1016.3 1016.3 0.0
25/10:00am 26.6 26.2 15.3 50 6.9 E 11 20 6 11 1016.4 1016.4 0.0
25/09:30am 25.4 24.2 13.9 49 6.8 E 13 19 7 10 1016.4 1016.4 0.0
25/09:00am 24.0 22.6 12.3 48 6.7 E 11 17 6 9 1016.6 1016.6 0.0
25/08:30am 23.4 22.8 12.4 50 6.3 E 7 11 4 6 1016.3 1016.3 0.0
25/08:00am 22.4 21.5 11.2 49 6.2 E 7 11 4 6 1015.9 1015.9 0.0
25/07:30am 20.6 20.1 12.1 58 4.7 ESE 6 9 3 5 1015.4 1015.4 0.0
25/07:00am 20.1 19.3 11.6 58 4.7 E 7 9 4 5 1015.0 1015.0 0.0
25/06:30am 19.7 19.2 12.2 62 4.2 E 6 9 3 5 1014.9 1014.9 0.0
25/06:00am 20.7 19.6 12.1 58 4.8 ESE 9 11 5 6 1014.5 1014.5 0.0
25/05:30am 19.9 19.4 12.7 63 4.1 ESE 7 11 4 6 1014.4 1014.4 0.0
25/05:00am 19.3 19.3 14.3 73 2.9 ESE 7 11 4 6 1014.5 1014.5 0.0
25/04:30am 18.3 19.0 15.7 85 1.5 ESE 6 9 3 5 1014.3 1014.3 0.0
25/04:00am 18.2 19.4 16.9 92 0.8 ESE 6 6 3 3 1014.3 1014.3 0.0
25/03:30am 17.6 19.2 16.8 95 0.5 SE 4 6 2 3 1014.5 1014.5 0.0
25/03:00am 17.5 19.3 16.5 94 0.6 SE 2 4 1 2 1014.7 1014.7 0.0
25/02:30am 17.9 19.8 16.8 93 0.7 SE 2 4 1 2 1014.9 1014.9 0.0
25/02:00am 18.2 19.8 16.9 92 0.8 SSE 4 6 2 3 1015.0 1015.0 0.0
25/01:30am 18.7 20.9 17.4 92 0.8 SSE 2 4 1 2 1015.1 1015.1 0.0
25/01:00am 18.2 20.1 16.7 91 0.9 S 2 4 1 2 1015.2 1015.2 0.0
25/12:30am 18.8 21.4 17.5 92 0.8 CALM 0 4 0 2 1015.4 1015.4 0.0
25/12:00am 18.6 20.7 16.2 86 1.4 CALM 0 0 0 0 1015.3 1015.3 0.0
 
Date/Time
CST
Tmp

°C
App
Tmp
°C
Dew
Point
°C
Rel
Hum
%
Delta-T

°C
Wind Press
QNH
hPa
Press
MSL
hPa
Rain
since
9 am
mm
Dir
 
Spd
km/h
Gust
km/h
Spd
kts
Gust
kts
24/11:30pm 19.8 21.8 17.0 84 1.7 S 2 4 1 2 1015.4 1015.4 0.0
24/11:00pm 20.4 21.9 17.6 84 1.7 SSW 6 9 3 5 1015.4 1015.4 0.0
24/10:30pm 19.6 22.1 17.2 86 1.5 CALM 0 0 0 0 1015.3 1015.3 0.0
24/10:00pm 19.8 22.3 17.2 85 1.6 CALM 0 0 0 0 1015.3 1015.3 0.0
24/09:30pm 19.9 22.3 16.9 83 1.8 CALM 0 0 0 0 1015.1 1015.1 0.0
24/09:00pm 20.1 22.4 16.7 81 2.1 CALM 0 0 0 0 1014.8 1014.8 0.0
24/08:30pm 20.5 22.8 16.7 79 2.3 CALM 0 0 0 0 1014.6 1014.6 0.0
24/08:00pm 21.0 23.2 16.6 76 2.7 CALM 0 2 0 1 1014.2 1014.2 0.0
24/07:30pm 21.9 23.8 16.6 72 3.2 NW 2 4 1 2 1013.8 1013.8 0.0
24/07:00pm 23.2 25.5 16.7 67 4.0 CALM 0 2 0 1 1013.5 1013.5 0.0
24/06:30pm 25.0 26.5 16.7 60 5.1 WNW 4 6 2 3 1013.2 1013.2 0.0
24/06:00pm 27.5 29.2 17.1 53 6.5 NW 4 7 2 4 1012.9 1012.9 0.0
24/05:30pm 28.4 29.5 17.0 50 7.1 NNW 7 13 4 7 1012.5 1012.5 0.0
24/05:00pm 29.1 30.2 16.6 46 7.8 NNW 6 9 3 5 1012.3 1012.3 0.0
24/04:30pm 29.7 30.4 16.1 43 8.4 NNW 7 13 4 7 1012.2 1012.2 0.0
24/04:00pm 30.7 30.5 13.5 35 10.3 N 7 15 4 8 1012.0 1012.0 0.0
24/03:30pm 31.6 29.7 9.2 25 12.6 NE 9 13 5 7 1012.0 1012.0 0.0
24/03:00pm 32.1 30.3 9.6 25 12.8 ENE 9 15 5 8 1012.1 1012.1 0.0
24/02:30pm 31.2 29.8 9.4 26 12.3 ENE 7 13 4 7 1012.2 1012.2 0.0
24/02:00pm 31.1 29.1 8.8 25 12.4 ENE 9 17 5 9 1012.6 1012.6 0.0
24/01:30pm 31.1 29.3 9.3 26 12.2 ENE 9 17 5 9 1012.9 1012.9 0.0
24/01:00pm 30.5 27.8 8.8 26 12.1 ENE 13 20 7 11 1013.4 1013.4 0.0
24/12:30pm 29.8 26.9 8.2 26 11.8 E 13 22 7 12 1014.0 1014.0 0.0
24/12:00pm 29.4 26.3 9.0 28 11.3 E 15 22 8 12 1014.3 1014.3 0.0
24/11:30am 28.8 26.1 10.5 32 10.4 E 15 24 8 13 1014.5 1014.5 0.0
24/11:00am 27.8 24.4 9.1 31 10.3 E 17 24 9 13 1014.8 1014.8 0.0
24/10:30am 26.9 24.6 10.6 36 9.2 ESE 13 22 7 12 1015.2 1015.2 0.0
24/10:00am 25.5 22.7 10.1 38 8.5 E 15 24 8 13 1015.5 1015.5 0.0
24/09:30am 24.7 22.2 9.8 39 8.2 E 13 22 7 12 1015.6 1015.6 0.0
24/09:00am 23.5 21.3 9.5 41 7.6 ESE 11 15 6 8 1015.7 1015.7 0.0
24/08:30am 22.7 21.8 10.8 47 6.6 ESE 6 11 3 6 1015.4 1015.4 0.0
24/08:00am 21.7 21.1 11.7 53 5.6 ESE 6 7 3 4 1015.3 1015.3 0.0
24/07:30am 21.4 20.8 11.7 54 5.4 ESE 6 9 3 5 1014.9 1014.9 0.0
24/07:00am 21.5 20.6 11.5 53 5.6 ESE 7 13 4 7 1014.4 1014.4 0.0
24/06:30am 22.0 21.1 12.5 54 5.4 ESE 9 15 5 8 1014.1 1014.1 0.0
24/06:00am 22.4 21.0 12.1 52 5.8 E 11 17 6 9 1013.9 1013.9 0.0
24/05:30am 22.2 21.7 12.7 55 5.4 E 7 15 4 8 1013.7 1013.7 0.0
24/05:00am 22.7 21.6 12.0 50 6.0 E 9 15 5 8 1013.8 1013.8 0.0
24/04:30am 22.9 22.2 11.9 50 6.2 E 7 11 4 6 1013.8 1013.8 0.0
24/04:00am 22.9 22.3 12.2 51 6.1 E 7 13 4 7 1013.7 1013.7 0.0
24/03:30am 22.6 22.2 13.1 55 5.5 E 7 11 4 6 1013.8 1013.8 0.0
24/03:00am 21.4 21.8 14.8 66 3.9 E 6 9 3 5 1013.9 1013.9 0.0
24/02:30am 21.8 21.9 13.9 61 4.6 E 6 9 3 5 1014.0 1014.0 0.0
24/02:00am 23.7 23.3 13.0 51 6.2 E 7 13 4 7 1014.1 1014.1 0.0
24/01:30am 23.9 23.5 14.0 54 5.8 ESE 9 13 5 7 1014.2 1014.2 0.0
24/01:00am 23.4 23.7 14.9 59 5.1 ESE 7 11 4 6 1014.3 1014.3 0.0
24/12:30am 22.3 23.6 17.0 72 3.2 ESE 6 9 3 5 1014.4 1014.4 0.0
24/12:00am 21.6 23.8 19.3 87 1.5 ESE 6 7 3 4 1014.4 1014.4 0.0
 
Date/Time
CST
Tmp

°C
App
Tmp
°C
Dew
Point
°C
Rel
Hum
%
Delta-T

°C
Wind Press
QNH
hPa
Press
MSL
hPa
Rain
since
9 am
mm
Dir
 
Spd
km/h
Gust
km/h
Spd
kts
Gust
kts
23/11:30pm 21.9 25.6 20.7 93 0.8 SE 2 4 1 2 1014.4 1014.4 0.0
23/11:00pm 22.4 26.2 21.6 95 0.5 SSE 4 6 2 3 1014.4 1014.4 0.0
23/10:30pm 21.6 24.7 20.2 92 0.9 SSE 4 6 2 3 1014.3 1014.3 0.0
23/10:00pm 21.7 24.8 20.2 91 1.0 SE 4 6 2 3 1014.1 1014.1 0.0
23/09:30pm 21.8 24.8 20.1 90 1.1 NE 4 4 2 2 1014.0 1014.0 0.0
23/09:00pm 22.2 26.0 20.1 88 1.4 CALM 0 2 0 1 1013.8 1013.8 0.0
23/08:30pm 22.0 24.9 19.0 83 1.9 NNE 2 2 1 1 1013.4 1013.4 0.0
23/08:00pm 22.6 26.1 19.6 83 1.9 CALM 0 0 0 0 1013.2 1013.2 0.0
23/07:30pm 23.8 27.0 18.9 74 3.1 CALM 0 0 0 0 1012.8 1012.8 0.0
23/07:00pm 26.3 29.6 20.8 71 3.6 W 4 6 2 3 1012.5 1012.5 0.0
23/06:30pm 27.1 29.8 20.2 66 4.5 WNW 6 7 3 4 1012.4 1012.4 0.0
23/06:00pm 28.1 30.7 19.3 58 5.7 WNW 4 9 2 5 1012.2 1012.2 0.0
23/05:30pm 28.9 31.1 19.2 55 6.3 WNW 6 9 3 5 1011.9 1011.9 0.0
23/05:00pm 29.5 32.3 20.9 60 5.7 W 7 15 4 8 1011.8 1011.8 0.0
23/04:30pm 30.2 31.9 19.3 52 7.1 W 9 15 5 8 1011.8 1011.8 0.0
23/04:00pm 31.3 33.8 19.0 48 8.0 WNW 4 9 2 5 1011.7 1011.7 0.0
23/03:30pm 31.6 33.7 18.2 44 8.6 W 4 7 2 4 1011.9 1011.9 0.0
23/03:00pm 32.7 32.9 14.8 34 11.0 E 7 13 4 7 1012.2 1012.2 0.0
23/02:30pm 32.3 32.9 15.3 35 10.5 ESE 6 13 3 7 1012.5 1012.5 0.0
23/02:00pm 31.6 31.6 14.3 35 10.5 E 7 13 4 7 1013.1 1013.1 0.0
23/01:30pm 31.1 31.3 14.7 37 10.0 E 7 11 4 6 1013.7 1013.7 0.0
23/01:00pm 30.8 30.6 14.8 37 9.8 E 9 15 5 8 1014.1 1014.1 0.0
23/12:30pm 30.1 29.8 15.4 41 9.0 E 11 17 6 9 1014.6 1014.6 0.0
23/12:00pm 29.9 29.3 15.6 42 8.8 E 13 19 7 10 1014.9 1014.9 0.0
23/11:30am 28.9 27.7 15.1 43 8.4 E 15 24 8 13 1015.4 1015.4 0.0
23/11:00am 28.0 26.8 15.0 45 7.9 ESE 15 22 8 12 1015.8 1015.8 0.0
23/10:30am 27.3 26.1 15.0 47 7.4 ESE 15 24 8 13 1016.2 1016.2 0.0
23/10:00am 26.7 25.1 15.1 49 7.0 ESE 17 28 9 15 1016.2 1016.2 0.0
23/09:30am 25.9 24.4 15.3 52 6.4 ESE 17 28 9 15 1016.4 1016.4 0.0
23/09:00am 25.0 24.4 15.6 56 5.7 ESE 13 24 7 13 1016.2 1016.2 0.0
23/08:30am 24.3 23.6 15.5 58 5.3 ESE 13 20 7 11 1016.2 1016.2 0.0
23/08:00am 23.7 23.6 16.0 62 4.7 ESE 11 19 6 10 1015.9 1015.9 0.0
23/07:30am 23.7 24.4 16.0 62 4.7 ESE 7 13 4 7 1015.8 1015.8 0.0
23/07:00am 23.4 23.8 16.2 64 4.4 ESE 9 17 5 9 1015.5 1015.5 0.0
23/06:30am 23.0 23.7 17.0 69 3.7 ESE 9 15 5 8 1015.2 1015.2 0.0
23/06:00am 22.2 24.0 18.2 78 2.5 ESE 6 11 3 6 1014.8 1014.8 0.0
23/05:30am 22.3 24.2 18.5 79 2.4 ESE 6 7 3 4 1014.8 1014.8 0.0
23/05:00am 22.7 24.6 18.9 79 2.4 ESE 7 9 4 5 1014.7 1014.7 0.0
23/04:30am 21.5 24.8 20.7 95 0.5 ESE 4 6 2 3 1014.6 1014.6 0.0
23/04:00am 21.1 24.5 20.1 94 0.6 ESE 2 4 1 2 1014.6 1014.6 0.0
23/03:30am 22.4 26.9 21.6 95 0.5 CALM 0 2 0 1 1014.5 1014.5 0.0
23/03:00am 22.9 27.6 21.9 94 0.7 CALM 0 2 0 1 1014.6 1014.6 0.0
23/02:30am 23.7 28.9 22.9 95 0.5 CALM 0 4 0 2 1014.5 1014.5 0.0
23/02:00am 24.1 28.7 23.2 95 0.6 S 4 6 2 3 1014.5 1014.5 0.0
23/01:30am 23.8 28.7 22.4 92 0.9 CALM 0 0 0 0 1014.5 1014.5 0.0
23/01:00am 24.4 29.7 23.0 92 0.9 CALM 0 2 0 1 1014.6 1014.6 0.0
23/12:30am 25.1 30.5 23.9 93 0.8 SSE 2 6 1 3 1014.6 1014.6 0.0
23/12:00am 25.1 30.2 23.3 90 1.2 SSE 2 4 1 2 1014.8 1014.8 0.0
 
Date/Time
CST
Tmp

°C
App
Tmp
°C
Dew
Point
°C
Rel
Hum
%
Delta-T

°C
Wind Press
QNH
hPa
Press
MSL
hPa
Rain
since
9 am
mm
Dir
 
Spd
km/h
Gust
km/h
Spd
kts
Gust
kts
22/11:30pm 25.8 31.6 24.0 90 1.2 CALM 0 2 0 1 1015.1 1015.1 0.0
22/11:00pm 26.3 31.9 24.3 89 1.4 SSW 2 7 1 4 1015.3 1015.3 0.0
22/10:30pm 26.4 31.6 24.2 88 1.5 S 4 7 2 4 1015.3 1015.3 0.0
22/10:00pm 26.0 30.8 22.9 83 2.1 S 2 2 1 1 1015.4 1015.4 0.0
22/09:30pm 26.2 30.8 23.1 83 2.1 SSW 4 7 2 4 1015.3 1015.3 0.0
22/09:00pm 25.4 30.3 22.3 83 2.1 CALM 0 0 0 0 1015.0 1015.0 0.0
22/08:30pm 26.6 31.7 23.3 82 2.2 W 2 4 1 2 1014.7 1014.7 0.0
22/08:00pm 26.7 31.7 23.8 84 2.0 W 4 6 2 3 1014.4 1014.4 0.0
22/07:30pm 26.6 31.1 22.9 80 2.5 NW 4 6 2 3 1014.2 1014.2 0.0
22/07:00pm 26.9 31.5 23.2 80 2.5 WNW 4 7 2 4 1013.8 1013.8 0.0
22/06:30pm 27.3 32.4 23.3 79 2.7 WNW 2 6 1 3 1013.5 1013.5 0.0
22/06:00pm 28.2 32.9 24.0 78 2.9 W 6 9 3 5 1013.3 1013.3 0.0
22/05:30pm 28.7 33.2 24.0 76 3.3 W 7 11 4 6 1013.0 1013.0 0.0
22/05:00pm 29.3 33.9 24.2 74 3.5 W 7 15 4 8 1012.9 1012.9 0.0
22/04:30pm 29.2 33.9 24.3 75 3.4 W 7 15 4 8 1012.7 1012.7 0.0
22/04:00pm 29.9 34.9 24.8 74 3.6 W 7 15 4 8 1012.8 1012.8 0.0
22/03:30pm 30.2 34.3 24.6 72 3.9 W 11 19 6 10 1013.1 1013.1 0.0

Latest Capital City Observations: Canberra | Sydney | Melbourne | Brisbane | Adelaide | Perth | Hobart | Darwin

Other Formats:

Comma delimited format used in spreadsheet applications
http://www.bom.gov.au/fwo/IDD60901/IDD60901.94116.axf

JavaScript Object Notation format (JSON) in row-major order
http://www.bom.gov.au/fwo/IDD60901/IDD60901.94116.json